createdAt,value
2024-02-27T00:00:23.666Z,2.58
2024-02-27T00:02:52.728Z,2.60
2024-02-27T00:05:20.536Z,2.53
2024-02-27T00:07:48.271Z,2.50
2024-02-27T00:10:16.038Z,2.53
2024-02-27T00:12:43.838Z,2.40
2024-02-27T00:15:11.576Z,2.55
2024-02-27T00:17:39.384Z,2.42
2024-02-27T00:20:09.542Z,2.22
2024-02-27T00:22:37.257Z,2.42
2024-02-27T00:25:05.512Z,2.47
2024-02-27T00:27:33.256Z,3.33
2024-02-27T00:30:00.943Z,2.15
2024-02-27T00:32:28.643Z,2.63
2024-02-27T00:34:56.310Z,2.63
2024-02-27T00:37:25.284Z,2.60
2024-02-27T00:39:54.482Z,2.15
2024-02-27T00:42:22.131Z,2.10
2024-02-27T00:44:49.699Z,2.30
2024-02-27T00:47:17.260Z,1.98
2024-02-27T00:49:44.920Z,2.30
2024-02-27T00:52:12.477Z,2.10
2024-02-27T00:54:41.460Z,1.95
2024-02-27T00:57:09.138Z,1.58
2024-02-27T00:59:36.761Z,1.85
2024-02-27T01:02:04.318Z,1.95
2024-02-27T01:04:33.715Z,2.70
2024-02-27T01:07:01.601Z,2.30
2024-02-27T01:09:29.530Z,2.60
2024-02-27T01:11:58.538Z,2.97
2024-02-27T01:14:26.174Z,2.90
2024-02-27T01:16:53.979Z,3.97
2024-02-27T01:19:21.895Z,3.42
2024-02-27T01:21:49.574Z,3.63
2024-02-27T01:24:17.178Z,3.72
2024-02-27T01:26:44.800Z,3.70
2024-02-27T01:29:13.900Z,4.30
2024-02-27T01:31:41.525Z,4.03
2024-02-27T01:34:09.248Z,3.60
2024-02-27T01:36:36.870Z,3.78
2024-02-27T01:39:05.625Z,4.43
2024-02-27T01:41:33.520Z,3.85
2024-02-27T01:44:01.220Z,4.40
2024-02-27T01:46:31.494Z,4.90
2024-02-27T01:48:59.582Z,5.10
2024-02-27T01:51:27.817Z,4.85
2024-02-27T01:53:58.665Z,4.38
2024-02-27T01:56:26.843Z,4.57
2024-02-27T01:58:55.746Z,4.63
2024-02-27T02:03:55.198Z,5.03
2024-02-27T02:06:23.008Z,4.55
2024-02-27T02:08:50.734Z,5.43
2024-02-27T02:11:18.512Z,5.22
2024-02-27T02:13:46.469Z,5.75
2024-02-27T02:16:15.406Z,5.32
2024-02-27T02:18:43.211Z,5.93
2024-02-27T02:21:12.283Z,5.53
2024-02-27T02:23:40.729Z,5.82
2024-02-27T02:26:08.494Z,6.65
2024-02-27T02:28:36.130Z,6.28
2024-02-27T02:31:04.076Z,6.40
2024-02-27T02:33:31.935Z,6.05
2024-02-27T02:35:59.708Z,6.82
2024-02-27T02:38:28.685Z,6.60
2024-02-27T02:40:56.430Z,7.43
2024-02-27T02:43:24.052Z,6.35
2024-02-27T02:45:51.772Z,6.68
2024-02-27T02:48:19.592Z,6.55
2024-02-27T02:50:48.238Z,7.05
2024-02-27T02:53:15.928Z,6.72
2024-02-27T02:55:46.788Z,7.10
2024-02-27T02:58:14.341Z,6.38
2024-02-27T03:00:42.119Z,8.02
2024-02-27T03:03:09.777Z,7.15
2024-02-27T03:05:38.085Z,6.97
2024-02-27T03:08:06.070Z,7.80
2024-02-27T03:10:33.800Z,6.82
2024-02-27T03:13:02.975Z,7.35
2024-02-27T03:15:31.610Z,7.03
2024-02-27T03:17:59.459Z,8.18
2024-02-27T03:20:28.357Z,7.13
2024-02-27T03:22:55.922Z,7.78
2024-02-27T03:25:23.480Z,6.90
2024-02-27T03:27:51.170Z,7.95
2024-02-27T03:30:20.460Z,7.68
2024-02-27T03:32:48.348Z,7.78
2024-02-27T03:35:16.193Z,9.15
2024-02-27T03:37:44.381Z,7.80
2024-02-27T03:40:12.387Z,7.10
2024-02-27T03:42:40.116Z,7.97
2024-02-27T03:45:10.010Z,7.70
2024-02-27T03:47:39.154Z,8.00
2024-02-27T03:50:07.802Z,8.25
2024-02-27T03:52:35.574Z,7.57
2024-02-27T03:55:03.549Z,7.82
2024-02-27T03:57:31.164Z,8.30
2024-02-27T03:59:58.895Z,8.32
2024-02-27T04:02:26.511Z,7.10
2024-02-27T04:04:55.590Z,7.70
2024-02-27T04:07:23.235Z,8.13
2024-02-27T04:09:50.818Z,7.72
2024-02-27T04:12:18.400Z,8.20
2024-02-27T04:14:46.084Z,8.88
2024-02-27T04:17:13.690Z,8.02
2024-02-27T04:19:41.521Z,8.40
2024-02-27T04:22:10.840Z,8.95
2024-02-27T04:24:38.444Z,9.10
2024-02-27T04:27:06.443Z,9.10
2024-02-27T04:29:34.097Z,8.63
2024-02-27T04:32:01.794Z,8.45
2024-02-27T04:34:29.573Z,9.40
2024-02-27T04:36:58.027Z,9.43
2024-02-27T04:39:29.882Z,9.98
2024-02-27T04:41:57.642Z,8.57
2024-02-27T04:44:25.214Z,9.23
2024-02-27T04:46:52.891Z,8.85
2024-02-27T04:49:20.538Z,9.82
2024-02-27T04:51:49.834Z,10.38
2024-02-27T04:54:18.196Z,8.77
2024-02-27T04:56:47.184Z,9.70
2024-02-27T04:59:14.885Z,9.43
2024-02-27T05:01:42.441Z,10.07
2024-02-27T05:04:10.067Z,10.27
2024-02-27T05:06:37.759Z,9.93
2024-02-27T05:09:05.477Z,9.68
2024-02-27T05:11:33.105Z,8.50
2024-02-27T05:14:02.452Z,9.05
2024-02-27T05:16:30.287Z,10.05
2024-02-27T05:18:58.004Z,9.70
2024-02-27T05:21:25.693Z,9.52
2024-02-27T05:23:53.271Z,10.23
2024-02-27T05:26:20.917Z,10.20
2024-02-27T05:28:48.554Z,10.70
2024-02-27T05:31:26.105Z,11.25
2024-02-27T05:33:54.733Z,11.27
2024-02-27T05:36:22.602Z,10.75
2024-02-27T05:38:51.577Z,11.60
2024-02-27T05:43:46.881Z,10.30
2024-02-27T05:46:14.896Z,10.20
2024-02-27T05:48:44.511Z,10.40
2024-02-27T05:51:12.630Z,10.98
2024-02-27T05:53:40.365Z,11.32
2024-02-27T05:56:08.133Z,11.25
2024-02-27T05:58:36.006Z,11.25
2024-02-27T06:01:03.893Z,11.68
2024-02-27T06:03:31.568Z,10.95
2024-02-27T06:06:01.838Z,10.75
2024-02-27T06:08:29.629Z,11.02
2024-02-27T06:10:57.260Z,10.38
2024-02-27T06:13:26.400Z,11.52
2024-02-27T06:15:55.519Z,10.50
2024-02-27T06:18:23.214Z,11.32
2024-02-27T06:21:09.411Z,11.30
2024-02-27T06:23:38.446Z,12.10
2024-02-27T06:26:09.677Z,11.93
2024-02-27T06:28:37.294Z,9.75
2024-02-27T06:31:05.322Z,11.10
2024-02-27T06:33:32.998Z,11.32
2024-02-27T06:36:00.738Z,11.38
2024-02-27T06:38:28.346Z,10.70
2024-02-27T06:40:57.408Z,10.82
2024-02-27T06:43:26.236Z,11.25
2024-02-27T06:48:21.693Z,11.05
2024-02-27T06:50:52.854Z,13.43
2024-02-27T06:53:20.648Z,10.55
2024-02-27T06:55:49.352Z,11.82
2024-02-27T06:58:18.752Z,12.32
2024-02-27T07:00:46.739Z,12.93
2024-02-27T07:03:14.444Z,12.70
2024-02-27T07:05:52.251Z,11.80
2024-02-27T07:08:21.452Z,11.45
2024-02-27T07:10:49.299Z,11.88
2024-02-27T07:13:18.846Z,11.43
2024-02-27T07:15:48.014Z,11.43
2024-02-27T07:18:17.552Z,11.27
2024-02-27T07:20:46.426Z,11.40
2024-02-27T07:23:14.470Z,11.80
2024-02-27T07:25:42.338Z,10.88
2024-02-27T07:28:16.898Z,10.82
2024-02-27T07:30:51.355Z,11.73
2024-02-27T07:33:19.368Z,12.73
2024-02-27T07:35:47.098Z,11.48
2024-02-27T07:38:14.724Z,11.70
2024-02-27T07:40:42.376Z,12.00
2024-02-27T07:43:10.059Z,12.30
2024-02-27T07:45:37.848Z,12.13
2024-02-27T07:48:07.663Z,12.05
2024-02-27T07:50:35.337Z,12.40
2024-02-27T07:53:03.223Z,12.35
2024-02-27T07:55:30.849Z,12.25
2024-02-27T07:57:58.480Z,13.73
2024-02-27T08:00:26.315Z,14.60
2024-02-27T08:02:54.062Z,13.90
2024-02-27T08:05:27.081Z,13.20
2024-02-27T08:07:54.798Z,12.32
2024-02-27T08:10:22.436Z,13.98
2024-02-27T08:12:50.005Z,13.77
2024-02-27T08:15:17.824Z,14.52
2024-02-27T08:17:45.554Z,13.50
2024-02-27T08:20:13.587Z,13.43
2024-02-27T08:22:42.724Z,12.95
2024-02-27T08:25:10.737Z,13.10
2024-02-27T08:27:38.535Z,13.38
2024-02-27T08:30:07.651Z,14.00
2024-02-27T08:32:35.469Z,13.80
2024-02-27T08:35:03.917Z,13.90
2024-02-27T08:37:31.658Z,12.50
2024-02-27T08:40:00.882Z,13.07
2024-02-27T08:42:28.613Z,13.18
2024-02-27T08:44:56.276Z,13.70
2024-02-27T08:47:24.047Z,13.05
2024-02-27T08:49:52.112Z,14.20
2024-02-27T08:52:19.782Z,14.57
2024-02-27T08:54:47.628Z,14.05
2024-02-27T08:57:17.082Z,15.23
2024-02-27T08:59:47.592Z,13.60
2024-02-27T09:02:15.482Z,14.27
2024-02-27T09:04:43.711Z,13.38
2024-02-27T09:07:12.755Z,14.93
2024-02-27T09:09:40.842Z,13.80
2024-02-27T09:12:10.702Z,13.65
2024-02-27T09:14:40.411Z,13.90
2024-02-27T09:17:08.198Z,14.27
2024-02-27T09:19:36.060Z,14.57
2024-02-27T09:22:04.069Z,13.90
2024-02-27T09:24:31.888Z,13.93
2024-02-27T09:27:02.128Z,13.93
2024-02-27T09:29:31.479Z,12.80
2024-02-27T09:32:00.746Z,13.20
2024-02-27T09:34:28.510Z,13.20
2024-02-27T09:36:56.290Z,13.57
2024-02-27T09:39:24.991Z,13.20
2024-02-27T09:41:59.840Z,11.75
2024-02-27T09:44:27.793Z,13.20
2024-02-27T09:46:56.082Z,12.15
2024-02-27T09:49:36.545Z,12.02
2024-02-27T09:52:11.654Z,12.63
2024-02-27T09:54:39.816Z,12.75
2024-02-27T09:57:08.442Z,12.45
2024-02-27T09:59:38.367Z,12.27
2024-02-27T10:02:09.781Z,12.90
2024-02-27T10:04:40.234Z,13.50
2024-02-27T10:07:12.129Z,11.73
2024-02-27T10:09:42.226Z,10.82
2024-02-27T10:12:11.716Z,11.80
2024-02-27T10:14:40.345Z,13.48
2024-02-27T10:17:08.938Z,11.45
2024-02-27T10:19:39.769Z,12.25
2024-02-27T10:22:07.784Z,11.73
2024-02-27T10:24:36.041Z,12.73
2024-02-27T10:27:08.699Z,11.18
2024-02-27T10:29:37.163Z,11.23
2024-02-27T10:32:07.497Z,10.30
2024-02-27T10:34:35.297Z,10.50
2024-02-27T10:37:05.856Z,12.25
2024-02-27T10:39:34.542Z,11.40
2024-02-27T10:42:02.481Z,10.82
2024-02-27T10:44:30.459Z,11.13
2024-02-27T10:47:00.761Z,11.65
2024-02-27T10:49:29.500Z,12.00
2024-02-27T10:52:01.442Z,10.45
2024-02-27T10:54:32.710Z,10.95
2024-02-27T10:57:01.600Z,11.48
2024-02-27T10:59:32.842Z,11.15
2024-02-27T11:02:01.588Z,10.18
2024-02-27T11:07:04.993Z,15.73
2024-02-27T11:09:36.084Z,10.38
2024-02-27T11:12:04.970Z,9.73
2024-02-27T11:14:39.011Z,10.38
2024-02-27T11:17:11.741Z,11.10
2024-02-27T11:19:45.342Z,10.68
2024-02-27T11:22:14.014Z,10.13
2024-02-27T11:24:43.096Z,10.93
2024-02-27T11:27:13.011Z,10.48
2024-02-27T11:29:41.259Z,10.88
2024-02-27T11:32:09.309Z,9.95
2024-02-27T11:34:37.091Z,10.20
2024-02-27T11:37:09.205Z,9.18
2024-02-27T11:39:37.282Z,8.30
2024-02-27T11:42:09.260Z,9.48
2024-02-27T11:45:03.290Z,9.98
2024-02-27T11:47:36.305Z,12.00
2024-02-27T11:50:04.837Z,10.55
2024-02-27T11:52:35.132Z,9.52
2024-02-27T11:55:07.256Z,10.20
2024-02-27T11:57:37.953Z,10.07
2024-02-27T12:00:08.981Z,10.15
2024-02-27T12:02:37.224Z,10.15
2024-02-27T12:05:09.180Z,9.50
2024-02-27T12:07:36.958Z,10.50
2024-02-27T12:10:10.477Z,9.95
2024-02-27T12:12:41.074Z,10.43
2024-02-27T12:15:10.809Z,9.68
2024-02-27T12:17:38.810Z,9.95
2024-02-27T12:20:10.604Z,9.52
2024-02-27T12:22:39.459Z,10.13
2024-02-27T12:27:39.391Z,10.60
2024-02-27T12:30:11.704Z,10.52
2024-02-27T12:32:43.431Z,10.20
2024-02-27T12:35:13.291Z,9.45
2024-02-27T12:37:41.821Z,10.60
2024-02-27T12:42:41.795Z,8.80
2024-02-27T12:45:13.294Z,8.88
2024-02-27T12:47:42.984Z,10.50
2024-02-27T12:50:12.209Z,10.70
2024-02-27T12:52:41.990Z,11.15
2024-02-27T12:55:11.161Z,8.85
2024-02-27T12:57:39.163Z,11.18
2024-02-27T13:00:10.531Z,10.43
2024-02-27T13:02:42.611Z,9.55
2024-02-27T13:05:11.744Z,9.93
2024-02-27T13:07:40.631Z,9.80
2024-02-27T13:10:09.069Z,10.13
2024-02-27T13:12:36.844Z,9.73
2024-02-27T13:15:05.122Z,10.50
2024-02-27T13:17:32.880Z,10.27
2024-02-27T13:20:02.128Z,10.20
2024-02-27T13:22:29.773Z,9.98
2024-02-27T13:24:57.751Z,10.18
2024-02-27T13:27:25.493Z,10.40
2024-02-27T13:29:54.904Z,11.18
2024-02-27T13:32:22.486Z,10.23
2024-02-27T13:34:50.254Z,9.27
2024-02-27T13:37:19.384Z,10.40
2024-02-27T13:39:47.136Z,10.25
2024-02-27T13:42:15.134Z,11.10
2024-02-27T13:44:42.858Z,9.90
2024-02-27T13:47:11.910Z,10.60
2024-02-27T13:49:39.997Z,9.48
2024-02-27T13:52:08.020Z,9.52
2024-02-27T13:54:39.377Z,10.20
2024-02-27T13:57:07.396Z,10.50
2024-02-27T13:59:35.036Z,10.50
2024-02-27T14:02:02.847Z,9.90
2024-02-27T14:04:30.729Z,9.60
2024-02-27T14:06:59.840Z,11.18
2024-02-27T14:09:27.478Z,10.55
2024-02-27T14:11:57.031Z,10.25
2024-02-27T14:14:24.774Z,10.27
2024-02-27T14:16:52.475Z,10.23
2024-02-27T14:19:20.149Z,9.45
2024-02-27T14:21:47.865Z,11.13
2024-02-27T14:24:15.516Z,9.30
2024-02-27T14:26:43.332Z,9.60
2024-02-27T14:29:12.324Z,9.75
2024-02-27T14:31:40.397Z,9.35
2024-02-27T14:34:08.322Z,8.95
2024-02-27T14:36:36.257Z,9.32
2024-02-27T14:39:04.037Z,14.00
2024-02-27T14:41:31.868Z,9.20
2024-02-27T14:43:59.564Z,9.48
2024-02-27T14:46:29.166Z,10.93
2024-02-27T14:48:56.984Z,12.88
2024-02-27T14:51:25.608Z,12.38
2024-02-27T14:56:20.873Z,11.63
2024-02-27T14:58:48.633Z,13.18
2024-02-27T15:01:16.432Z,12.07
2024-02-27T15:03:45.640Z,13.40
2024-02-27T15:06:13.868Z,13.57
2024-02-27T15:08:41.574Z,13.98
2024-02-27T15:11:09.344Z,13.73
2024-02-27T15:13:37.054Z,13.70
2024-02-27T15:16:05.021Z,12.20
2024-02-27T15:18:32.646Z,13.25
2024-02-27T15:21:05.226Z,14.25
2024-02-27T15:23:32.982Z,13.07
2024-02-27T15:26:00.886Z,14.68
2024-02-27T15:28:29.361Z,13.13
2024-02-27T15:30:57.132Z,13.18
2024-02-27T15:33:25.041Z,14.23
2024-02-27T15:35:52.694Z,13.98
2024-02-27T15:38:21.696Z,13.43
2024-02-27T15:40:49.308Z,13.90
2024-02-27T15:43:16.907Z,12.77
2024-02-27T15:45:44.546Z,11.90
2024-02-27T15:48:12.407Z,12.77
2024-02-27T15:50:40.117Z,12.80
2024-02-27T15:53:07.762Z,12.70
2024-02-27T15:55:36.872Z,14.07
2024-02-27T15:58:04.746Z,11.95
2024-02-27T16:00:32.551Z,12.77
2024-02-27T16:03:05.810Z,12.77
2024-02-27T16:05:34.008Z,11.05
2024-02-27T16:08:01.705Z,13.25
2024-02-27T16:10:29.386Z,12.20
2024-02-27T16:12:58.769Z,12.43
2024-02-27T16:15:26.470Z,12.93
2024-02-27T16:17:54.310Z,11.98
2024-02-27T16:20:21.950Z,11.88
2024-02-27T16:22:49.527Z,11.85
2024-02-27T16:25:17.116Z,12.38
2024-02-27T16:27:44.766Z,11.45
2024-02-27T16:30:16.267Z,11.52
2024-02-27T16:32:46.441Z,11.80
2024-02-27T16:35:14.236Z,10.82
2024-02-27T16:37:41.926Z,11.68
2024-02-27T16:40:10.452Z,11.95
2024-02-27T16:42:38.174Z,13.18
2024-02-27T16:45:06.780Z,12.23
2024-02-27T16:47:38.896Z,14.55
2024-02-27T16:50:07.453Z,13.40
2024-02-27T16:52:35.204Z,12.57
2024-02-27T16:55:03.069Z,12.55
2024-02-27T16:57:30.840Z,11.95
2024-02-27T16:59:58.512Z,13.13
2024-02-27T17:02:26.193Z,13.00
2024-02-27T17:04:55.321Z,13.38
2024-02-27T17:07:23.714Z,12.65
2024-02-27T17:09:51.482Z,12.07
2024-02-27T17:12:19.221Z,12.18
2024-02-27T17:14:46.850Z,12.27
2024-02-27T17:17:14.737Z,13.05
2024-02-27T17:19:42.508Z,11.80
2024-02-27T17:22:11.502Z,12.63
2024-02-27T17:24:39.266Z,11.43
2024-02-27T17:27:07.550Z,12.10
2024-02-27T17:29:35.406Z,12.75
2024-02-27T17:32:03.625Z,12.07
2024-02-27T17:34:31.393Z,11.18
2024-02-27T17:36:59.142Z,11.80
2024-02-27T17:39:28.267Z,11.05
2024-02-27T17:41:55.895Z,11.38
2024-02-27T17:44:24.559Z,12.13
2024-02-27T17:46:52.198Z,11.90
2024-02-27T17:49:20.116Z,12.38
2024-02-27T17:51:47.872Z,11.45
2024-02-27T17:54:15.605Z,11.10
2024-02-27T17:56:46.803Z,11.93
2024-02-27T17:59:15.664Z,11.05
2024-02-27T18:01:43.329Z,11.93
2024-02-27T18:04:11.107Z,13.07
2024-02-27T18:06:38.953Z,10.95
2024-02-27T18:09:06.725Z,13.60
2024-02-27T18:11:34.436Z,12.65
2024-02-27T18:14:03.473Z,11.57
2024-02-27T18:16:31.129Z,13.18
2024-02-27T18:18:58.946Z,11.52
2024-02-27T18:21:26.749Z,13.02
2024-02-27T18:23:54.345Z,12.70
2024-02-27T18:26:22.008Z,12.68
2024-02-27T18:28:49.612Z,11.63
2024-02-27T18:31:25.432Z,13.70
2024-02-27T18:33:53.442Z,12.70
2024-02-27T18:36:21.303Z,12.48
2024-02-27T18:38:48.926Z,12.80
2024-02-27T18:41:16.581Z,14.05
2024-02-27T18:43:44.310Z,13.70
2024-02-27T18:46:13.562Z,13.43
2024-02-27T18:48:42.800Z,13.50
2024-02-27T18:51:11.781Z,12.85
2024-02-27T18:53:40.987Z,13.18
2024-02-27T18:56:08.936Z,13.85
2024-02-27T18:58:36.625Z,13.10
2024-02-27T19:01:05.302Z,14.23
2024-02-27T19:03:33.112Z,14.27
2024-02-27T19:06:04.645Z,14.02
2024-02-27T19:08:32.231Z,14.75
2024-02-27T19:11:08.510Z,14.32
2024-02-27T19:13:37.307Z,14.75
2024-02-27T19:18:33.757Z,13.93
2024-02-27T19:21:01.424Z,14.13
2024-02-27T19:23:29.082Z,16.27
2024-02-27T19:25:56.973Z,15.48
2024-02-27T19:28:26.016Z,16.67
2024-02-27T19:30:53.721Z,15.00
2024-02-27T19:33:21.477Z,16.52
2024-02-27T19:35:49.184Z,15.70
2024-02-27T19:38:19.383Z,15.93
2024-02-27T19:40:47.789Z,15.60
2024-02-27T19:43:16.297Z,15.65
2024-02-27T19:45:46.216Z,15.48
2024-02-27T19:48:14.195Z,14.70
2024-02-27T19:50:41.851Z,16.58
2024-02-27T19:53:09.500Z,17.33
2024-02-27T19:55:38.765Z,15.23
2024-02-27T19:58:06.629Z,15.15
2024-02-27T20:00:34.800Z,15.68
2024-02-27T20:03:04.476Z,16.33
2024-02-27T20:05:32.267Z,15.95
2024-02-27T20:07:59.823Z,16.45
2024-02-27T20:10:27.455Z,15.13
2024-02-27T20:12:55.135Z,16.33
2024-02-27T20:15:22.789Z,14.90
2024-02-27T20:17:50.874Z,16.73
2024-02-27T20:20:20.136Z,14.38
2024-02-27T20:22:48.127Z,14.63
2024-02-27T20:25:15.787Z,15.15
2024-02-27T20:27:46.868Z,14.88
2024-02-27T20:30:14.811Z,12.85
2024-02-27T20:32:42.733Z,14.23
2024-02-27T20:35:10.325Z,15.65
2024-02-27T20:37:39.358Z,15.50
2024-02-27T20:40:10.316Z,13.73
2024-02-27T20:42:38.007Z,15.52
2024-02-27T20:45:06.964Z,14.05
2024-02-27T20:47:34.572Z,14.63
2024-02-27T20:50:02.677Z,13.63
2024-02-27T20:52:31.411Z,13.82
2024-02-27T20:57:31.954Z,14.38
2024-02-27T21:00:07.270Z,12.85
2024-02-27T21:02:34.943Z,13.43
2024-02-27T21:05:02.816Z,14.68
2024-02-27T21:07:30.425Z,15.80
2024-02-27T21:10:03.199Z,13.82
2024-02-27T21:12:31.230Z,13.98
2024-02-27T21:15:01.502Z,14.68
2024-02-27T21:17:30.620Z,13.90
2024-02-27T21:19:58.427Z,14.70
2024-02-27T21:22:26.209Z,16.05
2024-02-27T21:24:54.364Z,14.25
2024-02-27T21:27:23.621Z,16.02
2024-02-27T21:29:51.307Z,14.57
2024-02-27T21:32:19.141Z,15.93
2024-02-27T21:34:46.835Z,14.85
2024-02-27T21:37:14.741Z,16.08
2024-02-27T21:39:42.422Z,15.30
2024-02-27T21:42:10.129Z,15.20
2024-02-27T21:44:39.135Z,15.70
2024-02-27T21:47:06.929Z,14.98
2024-02-27T21:49:34.580Z,16.17
2024-02-27T21:52:04.004Z,14.90
2024-02-27T21:54:32.375Z,15.73
2024-02-27T21:57:00.036Z,14.07
2024-02-27T21:59:27.738Z,15.90
2024-02-27T22:01:56.778Z,15.80
2024-02-27T22:04:24.426Z,15.15
2024-02-27T22:06:52.173Z,15.98
2024-02-27T22:09:19.798Z,13.73
2024-02-27T22:11:47.557Z,15.60
2024-02-27T22:14:15.202Z,15.20
2024-02-27T22:16:43.022Z,15.32
2024-02-27T22:19:12.397Z,14.32
2024-02-27T22:21:40.942Z,15.45
2024-02-27T22:24:08.634Z,15.45
2024-02-27T22:26:37.045Z,15.40
2024-02-27T22:29:04.621Z,17.23
2024-02-27T22:31:32.531Z,15.02
2024-02-27T22:34:00.111Z,16.40
2024-02-27T22:36:29.308Z,17.10
2024-02-27T22:38:57.010Z,16.48
2024-02-27T22:41:24.713Z,16.63
2024-02-27T22:43:52.373Z,17.05
2024-02-27T22:46:25.567Z,16.08
2024-02-27T22:48:53.326Z,16.13
2024-02-27T22:51:21.196Z,17.13
2024-02-27T22:53:50.248Z,16.83
2024-02-27T22:56:17.947Z,15.50
2024-02-27T22:58:45.486Z,15.82
2024-02-27T23:01:15.359Z,17.42
2024-02-27T23:03:43.026Z,16.58
2024-02-27T23:06:10.759Z,16.17
2024-02-27T23:08:38.476Z,15.75
2024-02-27T23:11:07.689Z,16.98
2024-02-27T23:13:35.237Z,15.13
2024-02-27T23:16:03.082Z,17.80
2024-02-27T23:18:30.743Z,15.55
2024-02-27T23:20:58.594Z,16.75
2024-02-27T23:23:26.157Z,17.50
2024-02-27T23:25:53.709Z,16.50
2024-02-27T23:28:25.791Z,16.15
2024-02-27T23:30:53.880Z,17.42
2024-02-27T23:33:21.663Z,16.02
2024-02-27T23:35:49.341Z,17.13
2024-02-27T23:38:18.447Z,17.42
2024-02-27T23:40:47.347Z,16.83
2024-02-27T23:43:15.105Z,17.63
2024-02-27T23:45:44.732Z,16.27
2024-02-27T23:48:12.544Z,16.70
2024-02-27T23:50:40.248Z,17.48
2024-02-27T23:53:07.784Z,16.63
2024-02-27T23:55:36.570Z,16.25
